Time;durP1;ratioP1;P1;durP2;ratioP2;P2;SDS_P1;SDS_P2;PMS_P1;PMS_P2;Temp;Humidity;BMP_temperature;BMP_pressure;BME280_temperature;BME280_humidity;BME280_pressure;Samples;Min_cycle;Max_cycle;Signal;HPM_P1;HPM_P2
2023/06/25 00:00:46;;;;;;;1.40;0.67;;;;;;;18.81;70.92;99881.88;5094253;28;20055;-64
2023/06/25 00:03:15;;;;;;;1.38;1.00;;;;;;;18.76;70.79;99883.75;5094496;28;20040;-63
2023/06/25 00:05:44;;;;;;;1.42;1.10;;;;;;;18.63;70.91;99889.28;5094168;28;20124;-63
2023/06/25 00:08:13;;;;;;;2.45;1.27;;;;;;;18.63;71.26;99884.13;5094169;28;20050;-63
2023/06/25 00:10:42;;;;;;;0.67;0.67;;;;;;;18.66;71.43;99878.00;5094065;28;20054;-63
2023/06/25 00:13:11;;;;;;;0.93;0.88;;;;;;;18.62;71.41;99877.22;5094410;28;20779;-63
2023/06/25 00:15:40;;;;;;;1.50;1.40;;;;;;;18.63;71.64;99878.94;5094000;28;20044;-63
2023/06/25 00:18:10;;;;;;;1.13;0.70;;;;;;;18.54;72.05;99879.22;5093968;28;20127;-63
2023/06/25 00:20:39;;;;;;;1.38;1.17;;;;;;;18.47;72.18;99877.72;5094615;28;20162;-63
2023/06/25 00:23:08;;;;;;;1.20;1.10;;;;;;;18.40;72.31;99860.66;5093839;28;20444;-63
2023/06/25 00:25:37;;;;;;;0.75;0.75;;;;;;;18.45;72.18;99871.69;5094279;28;20062;-63
2023/06/25 00:28:08;;;;;;;2.10;1.07;;;;;;;18.41;72.25;99867.50;5093791;28;20037;-63
2023/06/25 00:30:39;;;;;;;0.75;0.75;;;;;;;18.35;72.60;99867.72;5092720;28;20097;-63
2023/06/25 00:33:10;;;;;;;2.13;1.95;;;;;;;18.36;72.62;99868.53;5092625;28;20056;-63
2023/06/25 00:36:05;;;;;;;0.95;0.63;;;;;;;18.41;71.75;99857.16;5093908;28;20047;-63
2023/06/25 00:38:37;;;;;;;0.80;0.75;;;;;;;18.49;71.74;99860.41;5093966;28;20086;-63
2023/06/25 00:41:08;;;;;;;3.25;1.88;;;;;;;18.54;71.39;99857.69;5092519;28;20447;-63
2023/06/25 00:43:41;;;;;;;1.48;1.33;;;;;;;18.56;71.26;99856.75;5076805;28;20452;-63
2023/06/25 00:46:15;;;;;;;1.77;1.38;;;;;;;18.57;71.10;99852.44;5093666;28;20105;-63
2023/06/25 00:48:47;;;;;;;1.42;1.20;;;;;;;18.53;71.15;99850.81;5093610;28;20097;-63
2023/06/25 00:51:21;;;;;;;1.42;1.33;;;;;;;18.32;71.44;99815.25;5093666;28;20401;-63
2023/06/25 00:53:51;;;;;;;2.10;1.58;;;;;;;18.55;71.13;99849.03;5093515;28;20048;-63
2023/06/25 00:56:27;;;;;;;1.75;1.50;;;;;;;18.55;71.07;99844.72;5092673;28;20419;-63
2023/06/25 00:59:01;;;;;;;1.20;1.10;;;;;;;18.48;71.60;99838.03;5093722;28;20044;-63
2023/06/25 01:01:39;;;;;;;1.33;1.23;;;;;;;18.45;71.42;99843.25;5093450;28;20086;-64
2023/06/25 01:04:23;;;;;;;1.23;0.70;;;;;;;18.47;71.17;99846.69;5093793;28;20058;-63
2023/06/25 01:07:00;;;;;;;0.70;0.68;;;;;;;18.52;71.08;99838.81;5093498;28;20044;-64
2023/06/25 01:09:32;;;;;;;0.98;0.88;;;;;;;18.53;70.89;99832.72;5093767;28;20499;-63
2023/06/25 01:12:02;;;;;;;1.10;1.00;;;;;;;18.56;70.91;99833.50;5094242;28;20397;-64
2023/06/25 01:14:32;;;;;;;1.23;0.90;;;;;;;18.55;71.04;99836.94;5093238;28;20098;-63
2023/06/25 01:17:02;;;;;;;1.13;1.02;;;;;;;18.53;71.17;99833.56;5092415;28;20056;-63
2023/06/25 01:19:32;;;;;;;;;;;;;;;18.46;71.13;99834.66;5094262;28;20090;-63
2023/06/25 01:22:03;;;;;;;1.63;1.33;;;;;;;18.49;71.27;99837.16;5093232;28;20354;-63
2023/06/25 01:24:35;;;;;;;1.25;1.15;;;;;;;18.49;71.51;99829.41;5093564;28;20438;-63
2023/06/25 01:27:05;;;;;;;3.22;1.27;;;;;;;18.51;71.81;99831.94;5092475;28;20055;-64
2023/06/25 01:29:34;;;;;;;2.70;1.45;;;;;;;18.48;71.82;99832.88;5092152;28;20044;-63
2023/06/25 01:32:06;;;;;;;0.50;0.50;;;;;;;18.44;71.70;99833.81;5092259;28;20044;-63
2023/06/25 01:34:36;;;;;;;1.38;1.20;;;;;;;18.44;71.48;99831.25;5096023;28;20052;-63
2023/06/25 01:37:07;;;;;;;0.80;0.80;;;;;;;18.41;71.43;99831.31;5096959;28;20055;-63
2023/06/25 01:39:37;;;;;;;1.05;0.85;;;;;;;18.33;71.61;99830.69;5097383;28;20048;-63
2023/06/25 01:42:07;;;;;;;0.95;0.95;;;;;;;18.36;71.63;99833.19;5097048;28;20048;-63
2023/06/25 01:44:37;;;;;;;1.73;1.38;;;;;;;18.39;71.81;99834.84;5097209;28;20126;-63
2023/06/25 01:47:06;;;;;;;2.00;1.63;;;;;;;18.35;71.82;99831.53;5097075;28;20549;-64
2023/06/25 01:49:35;;;;;;;4.68;1.77;;;;;;;18.35;71.90;99834.09;5095622;28;20067;-63
2023/06/25 01:52:08;;;;;;;3.80;1.98;;;;;;;18.35;71.93;99834.09;5096719;28;20202;-63
2023/06/25 01:54:39;;;;;;;1.08;0.68;;;;;;;18.34;72.20;99837.56;5095933;28;20068;-63
2023/06/25 01:57:08;;;;;;;0.93;0.88;;;;;;;18.22;72.43;99835.34;5095823;28;20048;-63
2023/06/25 01:59:37;;;;;;;0.60;0.60;;;;;;;18.16;72.71;99835.53;5095685;28;20402;-63
2023/06/25 02:02:06;;;;;;;0.90;0.85;;;;;;;18.13;72.53;99835.63;5095839;28;20024;-63
2023/06/25 02:04:35;;;;;;;2.28;0.88;;;;;;;18.14;72.47;99832.13;5097092;28;20039;-63
2023/06/25 02:07:04;;;;;;;2.10;1.10;;;;;;;18.11;72.53;99837.41;5095206;28;20128;-63
2023/06/25 02:09:34;;;;;;;0.77;0.77;;;;;;;18.13;72.56;99840.78;5096352;28;20070;-63
2023/06/25 02:12:05;;;;;;;1.65;1.55;;;;;;;18.12;72.46;99844.25;5097450;28;20385;-63
2023/06/25 02:14:34;;;;;;;1.80;1.63;;;;;;;18.10;72.75;99838.28;5096623;28;20489;-63
2023/06/25 02:17:03;;;;;;;2.45;1.63;;;;;;;18.09;72.28;99841.78;5096128;28;20056;-63
2023/06/25 02:19:32;;;;;;;2.38;1.85;;;;;;;18.09;72.19;99839.19;5095270;28;20442;-63
2023/06/25 02:22:01;;;;;;;2.05;0.98;;;;;;;18.09;72.22;99834.03;5094899;28;20052;-63
2023/06/25 02:24:30;;;;;;;1.20;1.02;;;;;;;18.08;72.12;99837.47;5096083;28;20055;-63
2023/06/25 02:26:59;;;;;;;0.60;0.60;;;;;;;18.04;71.96;99835.91;5094887;28;20054;-63
2023/06/25 02:29:30;;;;;;;1.58;1.48;;;;;;;18.05;72.10;99837.56;5096136;28;20068;-63
2023/06/25 02:31:59;;;;;;;0.75;0.75;;;;;;;18.02;72.11;99840.22;5094843;28;20055;-63
2023/06/25 02:34:28;;;;;;;0.88;0.73;;;;;;;18.01;72.25;99846.31;5095902;28;20048;-63
2023/06/25 02:36:57;;;;;;;0.77;0.77;;;;;;;17.93;72.77;99853.41;5095891;28;20050;-63
2023/06/25 02:39:25;;;;;;;1.43;1.33;;;;;;;17.88;72.94;99850.09;5096087;28;20083;-63
2023/06/25 02:41:54;;;;;;;11.67;1.53;;;;;;;17.82;73.28;99845.13;5095866;28;20066;-63
2023/06/25 02:44:23;;;;;;;0.80;0.80;;;;;;;17.66;73.94;99833.53;5094797;28;20703;-63
2023/06/25 02:46:54;;;;;;;0.75;0.75;;;;;;;17.64;74.14;99835.28;5094507;28;20044;-63
2023/06/25 02:49:23;;;;;;;0.70;0.70;;;;;;;17.62;74.33;99829.31;5095738;28;20040;-63
2023/06/25 02:51:52;;;;;;;1.33;1.23;;;;;;;17.65;74.63;99831.81;5095830;28;20076;-63
2023/06/25 02:54:21;;;;;;;0.63;0.57;;;;;;;17.62;74.27;99832.75;5095770;28;20341;-63
2023/06/25 02:56:50;;;;;;;0.75;0.60;;;;;;;17.59;74.50;99839.75;5095521;28;20044;-63
2023/06/25 02:59:19;;;;;;;1.08;0.88;;;;;;;17.59;74.23;99826.84;5095347;28;20052;-63
2023/06/25 03:01:48;;;;;;;0.52;0.52;;;;;;;17.64;74.22;99830.13;5095005;28;20066;-63
2023/06/25 03:04:19;;;;;;;1.17;1.08;;;;;;;17.64;74.02;99836.13;5094160;28;20052;-63
2023/06/25 03:06:49;;;;;;;1.30;1.13;;;;;;;17.61;74.15;99830.22;5095325;28;20541;-63
2023/06/25 03:09:18;;;;;;;1.33;1.23;;;;;;;17.65;74.21;99837.84;5095179;28;20048;-63
2023/06/25 03:11:47;;;;;;;1.15;1.05;;;;;;;17.62;74.36;99840.50;5094223;28;20269;-63
2023/06/25 03:14:16;;;;;;;0.87;0.80;;;;;;;17.57;74.57;99838.91;5094018;28;20052;-63
2023/06/25 03:17:02;;;;;;;1.33;1.00;;;;;;;17.49;74.63;99835.66;5093903;28;20434;-63
2023/06/25 03:19:33;;;;;;;2.28;1.70;;;;;;;17.43;75.10;99837.53;5093793;28;20044;-63
2023/06/25 03:22:02;;;;;;;0.85;0.85;;;;;;;17.46;75.01;99840.91;5095222;28;20048;-63
2023/06/25 03:24:33;;;;;;;2.83;1.77;;;;;;;17.53;74.61;99832.16;5094040;28;20056;-63
2023/06/25 03:27:04;;;;;;;1.15;0.95;;;;;;;17.58;74.52;99836.31;5095225;28;20079;-63
2023/06/25 03:29:35;;;;;;;1.75;1.55;;;;;;;17.67;74.40;99846.38;5093947;28;20490;-63
2023/06/25 03:32:05;;;;;;;1.88;1.27;;;;;;;17.74;73.83;99847.06;5093656;28;20040;-63
2023/06/25 03:34:36;;;;;;;1.38;1.27;;;;;;;17.68;74.04;99842.06;5093562;28;20048;-63
2023/06/25 03:37:07;;;;;;;3.17;2.28;;;;;;;17.63;74.29;99833.59;5094044;28;20052;-63
2023/06/25 03:39:36;;;;;;;2.30;1.83;;;;;;;17.62;74.18;99832.75;5093787;28;20051;-63
2023/06/25 03:42:06;;;;;;;2.63;2.07;;;;;;;17.58;74.26;99832.88;5094526;28;20123;-63
2023/06/25 03:44:35;;;;;;;;;;;;;;;17.57;74.32;99833.75;5093845;28;20490;-63
2023/06/25 03:47:05;;;;;;;1.42;1.33;;;;;;;17.56;74.19;99838.09;5093553;28;19920;-63
2023/06/25 03:49:38;;;;;;;3.03;1.10;;;;;;;17.57;74.28;99833.75;5094523;28;20078;-63
2023/06/25 03:52:08;;;;;;;1.58;1.48;;;;;;;17.60;74.21;99831.09;5093213;28;20046;-63
2023/06/25 03:54:36;;;;;;;1.10;0.95;;;;;;;17.68;73.97;99834.31;5094391;28;20047;-63
2023/06/25 03:57:06;;;;;;;1.17;1.00;;;;;;;17.73;73.97;99833.28;5092519;28;20051;-63
2023/06/25 03:59:35;;;;;;;1.02;0.98;;;;;;;17.76;73.86;99840.09;5093381;28;20280;-63
2023/06/25 04:02:05;;;;;;;1.50;1.40;;;;;;;17.81;73.63;99846.00;5094478;28;20570;-63
2023/06/25 04:04:36;;;;;;;1.23;0.90;;;;;;;17.91;73.61;99837.09;5094193;28;20364;-63
2023/06/25 04:07:06;;;;;;;1.70;1.50;;;;;;;17.89;73.51;99841.47;5093249;28;20052;-63
2023/06/25 04:09:35;;;;;;;3.95;1.67;;;;;;;17.91;73.30;99844.84;5093772;28;20543;-63
2023/06/25 04:12:05;;;;;;;1.25;1.02;;;;;;;17.95;73.32;99841.28;5092920;28;20528;-63
2023/06/25 04:14:36;;;;;;;3.80;0.90;;;;;;;17.97;73.24;99836.97;5092943;28;20127;-63
2023/06/25 04:17:06;;;;;;;1.95;1.77;;;;;;;18.00;73.20;99839.44;5093155;28;20123;-63
2023/06/25 04:19:35;;;;;;;1.08;0.98;;;;;;;17.94;72.92;99834.44;5092810;28;20528;-63
2023/06/25 04:22:04;;;;;;;1.23;1.13;;;;;;;17.96;73.17;99837.84;5092866;28;20031;-63
2023/06/25 04:24:35;;;;;;;3.20;1.13;;;;;;;18.09;73.02;99828.84;5094158;28;20046;-63
2023/06/25 04:27:06;;;;;;;0.88;0.80;;;;;;;18.25;72.81;99819.75;5092989;28;20052;-63
2023/06/25 04:29:37;;;;;;;2.50;1.77;;;;;;;18.41;72.36;99823.56;5095077;28;20052;-63
2023/06/25 04:32:07;;;;;;;0.65;0.60;;;;;;;18.55;71.91;99818.84;5093108;28;20390;-63
2023/06/25 04:34:38;;;;;;;0.93;0.93;;;;;;;18.71;71.39;99820.06;5094151;28;20371;-63
2023/06/25 04:37:08;;;;;;;0.55;0.55;;;;;;;18.86;70.89;99825.66;5094085;28;20032;-63
2023/06/25 04:39:39;;;;;;;1.25;0.90;;;;;;;19.00;70.46;99828.66;5092616;28;20066;-63
2023/06/25 04:42:08;;;;;;;0.60;0.60;;;;;;;19.11;70.09;99829.13;5093977;28;20071;-64
2023/06/25 04:44:37;;;;;;;0.87;0.87;;;;;;;19.25;69.83;99827.78;5093399;28;20478;-63
2023/06/25 04:47:06;;;;;;;1.20;0.90;;;;;;;19.43;69.48;99831.53;5092446;28;20268;-63
2023/06/25 04:49:36;;;;;;;0.82;0.82;;;;;;;19.54;69.34;99831.16;5094107;28;20040;-64
2023/06/25 04:52:06;;;;;;;0.57;0.57;;;;;;;19.59;69.29;99832.69;5093522;28;20055;-64
2023/06/25 04:54:35;;;;;;;1.90;1.45;;;;;;;19.68;69.15;99827.19;5092564;28;20052;-63
2023/06/25 04:57:06;;;;;;;1.53;1.00;;;;;;;19.74;68.67;99820.94;5093510;28;20047;-63
2023/06/25 04:59:35;;;;;;;1.27;1.17;;;;;;;19.74;68.35;99818.34;5094162;28;20354;-63
2023/06/25 05:02:05;;;;;;;2.00;1.27;;;;;;;19.77;68.13;99821.66;5093479;28;20501;-63
2023/06/25 05:04:34;;;;;;;0.85;0.80;;;;;;;19.86;67.78;99821.34;5093816;28;20424;-63
2023/06/25 05:07:03;;;;;;;1.03;0.80;;;;;;;19.94;67.47;99823.63;5093932;28;20039;-63
2023/06/25 05:09:32;;;;;;;1.25;1.00;;;;;;;20.04;66.89;99820.66;5097518;28;20040;-64
2023/06/25 05:12:01;;;;;;;0.97;0.90;;;;;;;20.05;66.79;99809.41;5097849;28;20055;-63
2023/06/25 05:14:31;;;;;;;2.97;0.82;;;;;;;20.18;66.66;99814.16;5097527;28;20044;-64
2023/06/25 05:17:00;;;;;;;1.02;0.93;;;;;;;20.13;66.66;99806.50;5097739;28;20058;-63
2023/06/25 05:19:29;;;;;;;0.73;0.70;;;;;;;20.21;66.85;99811.41;5096209;28;20130;-63
2023/06/25 05:21:57;;;;;;;0.60;0.60;;;;;;;20.35;66.64;99811.75;5097321;28;20299;-64
2023/06/25 05:24:26;;;;;;;1.27;1.17;;;;;;;20.48;66.70;99816.44;5097433;28;20565;-64
2023/06/25 05:26:55;;;;;;;1.42;1.33;;;;;;;20.61;66.78;99809.03;5097511;28;20127;-63
2023/06/25 05:29:24;;;;;;;2.22;1.63;;;;;;;20.73;66.63;99811.97;5097491;28;20048;-63
2023/06/25 05:31:55;;;;;;;1.73;1.63;;;;;;;20.88;66.42;99815.69;5097428;28;20048;-63
2023/06/25 05:34:24;;;;;;;1.10;1.00;;;;;;;20.94;65.99;99809.41;5097795;28;20044;-64
2023/06/25 05:36:53;;;;;;;0.60;0.60;;;;;;;21.06;65.89;99809.78;5097303;28;20406;-63
2023/06/25 05:39:28;;;;;;;1.10;1.00;;;;;;;21.19;65.71;99805.75;5096089;28;20299;-63
2023/06/25 05:41:58;;;;;;;1.98;1.60;;;;;;;21.23;65.59;99817.72;5096781;28;20051;-63
2023/06/25 05:44:27;;;;;;;0.57;0.52;;;;;;;21.38;65.57;99818.00;5096985;28;20075;-64
2023/06/25 05:46:57;;;;;;;1.00;0.90;;;;;;;21.49;65.14;99805.38;5096801;28;20040;-64
2023/06/25 05:49:26;;;;;;;1.15;0.68;;;;;;;21.61;64.96;99807.44;5097156;28;20044;-64
2023/06/25 05:51:55;;;;;;;2.08;1.10;;;;;;;21.67;65.01;99796.78;5097449;28;20378;-64
2023/06/25 05:54:24;;;;;;;1.75;1.63;;;;;;;21.86;64.85;99797.66;5096921;28;20573;-63
2023/06/25 05:56:53;;;;;;;1.02;0.95;;;;;;;22.07;64.41;99795.88;5096952;28;20043;-63
2023/06/25 05:59:23;;;;;;;1.42;1.13;;;;;;;22.19;63.03;99795.31;5097230;28;20036;-64
2023/06/25 06:01:52;;;;;;;3.33;1.52;;;;;;;22.19;61.76;99796.16;5096865;28;20044;-63
2023/06/25 06:04:22;;;;;;;1.73;1.23;;;;;;;22.29;61.38;99800.00;5096678;28;20048;-64
2023/06/25 06:06:51;;;;;;;0.90;0.85;;;;;;;22.42;61.21;99798.53;5096523;28;20064;-64
2023/06/25 06:09:20;;;;;;;3.25;1.40;;;;;;;22.49;60.60;99788.66;5096405;28;20048;-64
2023/06/25 06:11:49;;;;;;;0.85;0.73;;;;;;;22.64;60.06;99795.78;5096431;28;20042;-63
2023/06/25 06:14:18;;;;;;;0.60;0.60;;;;;;;22.70;59.77;99799.84;5096278;28;20047;-64
2023/06/25 06:16:47;;;;;;;1.58;1.02;;;;;;;22.73;59.28;99803.13;5096216;28;20047;-63
2023/06/25 06:19:16;;;;;;;1.25;1.10;;;;;;;22.77;59.45;99798.66;5095537;28;20548;-63
2023/06/25 06:21:46;;;;;;;0.75;0.60;;;;;;;22.84;59.15;99800.03;5096258;28;20044;-64
2023/06/25 06:24:15;;;;;;;3.60;1.17;;;;;;;22.94;59.07;99801.28;5096070;28;20040;-64
2023/06/25 06:26:44;;;;;;;3.40;1.73;;;;;;;23.05;58.49;99798.97;5095975;28;20044;-64
2023/06/25 06:29:14;;;;;;;1.10;1.00;;;;;;;23.14;58.33;99798.50;5096261;28;20477;-63
2023/06/25 06:31:43;;;;;;;1.67;1.40;;;;;;;23.21;57.94;99794.66;5096133;28;20482;-64
2023/06/25 06:34:12;;;;;;;3.63;1.20;;;;;;;23.26;57.39;99797.88;5095992;28;20036;-64
2023/06/25 06:36:41;;;;;;;1.38;1.02;;;;;;;23.22;56.98;99796.38;5096270;28;20105;-63
2023/06/25 06:39:11;;;;;;;1.00;0.90;;;;;;;23.17;57.13;99795.75;5095825;28;20040;-63
2023/06/25 06:41:40;;;;;;;0.88;0.73;;;;;;;23.24;57.27;99791.91;5095767;28;20040;-63
2023/06/25 06:44:15;;;;;;;1.27;1.17;;;;;;;23.43;56.80;99790.09;5094484;28;20040;-64
2023/06/25 06:46:45;;;;;;;0.93;0.90;;;;;;;23.46;56.58;99784.72;5095870;28;20078;-64
2023/06/25 06:49:16;;;;;;;1.20;1.10;;;;;;;23.49;56.34;99781.13;5095949;28;20048;-63
2023/06/25 06:51:45;;;;;;;0.60;0.60;;;;;;;23.64;56.22;99786.38;5095629;28;20044;-64
2023/06/25 06:54:15;;;;;;;1.10;1.00;;;;;;;23.73;55.72;99785.88;5095808;28;20044;-64
2023/06/25 06:56:44;;;;;;;1.02;0.93;;;;;;;23.77;55.70;99784.81;5095455;28;20044;-64
2023/06/25 06:59:13;;;;;;;0.60;0.60;;;;;;;23.91;55.42;99787.53;5096076;28;20044;-64
2023/06/25 07:01:42;;;;;;;0.50;0.50;;;;;;;23.95;54.65;99791.63;5095700;28;20086;-64
2023/06/25 07:04:11;;;;;;;0.50;0.50;;;;;;;24.00;54.57;99792.25;5093572;28;20040;-63
2023/06/25 07:06:39;;;;;;;1.17;0.75;;;;;;;24.05;54.10;99783.31;5095298;28;20506;-63
2023/06/25 07:09:08;;;;;;;2.50;1.27;;;;;;;24.05;53.92;99784.16;5095509;28;20090;-64
2023/06/25 07:11:39;;;;;;;1.08;0.98;;;;;;;24.08;54.07;99788.41;5095195;28;20036;-64
2023/06/25 07:14:07;;;;;;;1.02;0.95;;;;;;;24.22;54.19;99785.88;5095147;28;20135;-64
2023/06/25 07:16:36;;;;;;;1.08;1.00;;;;;;;24.35;53.51;99781.69;5094111;28;20070;-64
2023/06/25 07:19:05;;;;;;;0.95;0.75;;;;;;;24.38;52.87;99781.50;5095428;28;20123;-63
2023/06/25 07:21:34;;;;;;;1.55;1.25;;;;;;;24.34;52.76;99783.44;5095034;28;20111;-64
2023/06/25 07:24:03;;;;;;;1.48;1.38;;;;;;;24.49;52.81;99773.94;5095250;28;20490;-64
2023/06/25 07:26:33;;;;;;;1.83;1.48;;;;;;;24.73;52.87;99771.69;5094881;28;20048;-64
2023/06/25 07:29:03;;;;;;;0.75;0.57;;;;;;;24.89;52.47;99773.38;5095190;28;20486;-64
2023/06/25 07:31:32;;;;;;;0.88;0.70;;;;;;;24.89;52.07;99773.38;5092832;28;20147;-63
2023/06/25 07:34:01;;;;;;;0.65;0.65;;;;;;;24.87;52.31;99779.59;5095290;28;20541;-64
2023/06/25 07:36:30;;;;;;;1.15;1.00;;;;;;;25.00;52.42;99776.19;5094937;28;20101;-64
2023/06/25 07:38:59;;;;;;;0.93;0.70;;;;;;;24.98;51.88;99772.00;5094604;28;20055;-64
2023/06/25 07:41:28;;;;;;;1.17;1.00;;;;;;;24.78;51.98;99775.78;5094414;28;20048;-64
2023/06/25 07:43:57;;;;;;;2.65;1.80;;;;;;;24.79;51.89;99764.38;5094807;28;20072;-64
2023/06/25 07:46:27;;;;;;;0.70;0.70;;;;;;;24.67;51.66;99765.03;5093201;28;20047;-64
2023/06/25 07:48:56;;;;;;;1.17;0.90;;;;;;;24.60;52.20;99761.09;5094762;28;20044;-64
2023/06/25 07:51:25;;;;;;;0.85;0.80;;;;;;;24.56;51.77;99759.59;5095059;28;20123;-64
2023/06/25 07:53:54;;;;;;;2.30;1.58;;;;;;;24.71;51.80;99756.13;5093387;28;20047;-64
2023/06/25 07:56:23;;;;;;;0.50;0.50;;;;;;;24.88;51.60;99763.88;5094334;28;20040;-64
2023/06/25 07:58:52;;;;;;;1.05;0.95;;;;;;;25.02;50.81;99757.84;5094662;28;20132;-63
2023/06/25 08:01:21;;;;;;;3.17;1.65;;;;;;;25.03;50.51;99749.03;5094576;28;20032;-64
2023/06/25 08:03:52;;;;;;;1.35;1.00;;;;;;;25.14;50.48;99751.88;5094324;28;20044;-64
2023/06/25 08:06:21;;;;;;;1.23;0.90;;;;;;;25.22;50.38;99755.72;5094150;28;20089;-64
2023/06/25 08:08:50;;;;;;;0.93;0.88;;;;;;;25.45;50.33;99745.69;5094171;28;20046;-64
2023/06/25 08:11:18;;;;;;;0.93;0.70;;;;;;;25.65;49.83;99763.63;5094125;28;20055;-64
2023/06/25 08:13:47;;;;;;;0.73;0.70;;;;;;;25.66;48.96;99747.00;5094017;28;20051;-64
2023/06/25 08:16:17;;;;;;;1.33;1.23;;;;;;;25.69;49.11;99744.19;5094340;28;20062;-64
2023/06/25 08:18:45;;;;;;;1.40;1.05;;;;;;;25.81;48.97;99744.28;5094240;28;20406;-64
2023/06/25 08:21:17;;;;;;;2.45;1.77;;;;;;;25.80;48.55;99739.97;5093973;28;20044;-65
2023/06/25 08:23:45;;;;;;;0.65;0.63;;;;;;;25.86;47.86;99746.63;5094265;28;20453;-64
2023/06/25 08:26:15;;;;;;;0.85;0.75;;;;;;;25.90;48.27;99748.94;5094113;28;20044;-65
2023/06/25 08:28:45;;;;;;;1.13;0.95;;;;;;;25.94;48.24;99749.56;5093883;28;20056;-64
2023/06/25 08:31:13;;;;;;;0.73;0.73;;;;;;;25.90;48.04;99748.09;5092897;28;20044;-64
2023/06/25 08:33:42;;;;;;;2.55;1.05;;;;;;;25.99;47.67;99747.50;5093794;28;20040;-64
2023/06/25 08:36:11;;;;;;;0.73;0.73;;;;;;;26.04;47.59;99742.84;5093714;28;20048;-63
2023/06/25 08:38:42;;;;;;;1.23;1.13;;;;;;;25.95;47.71;99741.66;5093785;28;20551;-64
2023/06/25 08:41:11;;;;;;;1.60;1.45;;;;;;;26.10;47.72;99745.09;5093467;28;20139;-64
2023/06/25 08:43:41;;;;;;;1.65;1.02;;;;;;;26.23;47.53;99735.53;5093629;28;20131;-64
2023/06/25 08:46:09;;;;;;;0.90;0.80;;;;;;;26.29;47.29;99734.31;5094140;28;20393;-64
2023/06/25 08:48:40;;;;;;;0.57;0.57;;;;;;;26.22;47.30;99733.88;5093539;28;20040;-64
2023/06/25 08:51:16;;;;;;;1.95;1.30;;;;;;;26.26;46.79;99730.09;5093649;28;20051;-64
2023/06/25 08:53:47;;;;;;;0.77;0.77;;;;;;;26.43;46.00;99742.94;5092433;28;20135;-64
2023/06/25 08:56:16;;;;;;;0.40;0.40;;;;;;;26.40;45.89;99737.06;5093548;28;20054;-64
2023/06/25 08:58:45;;;;;;;1.88;0.90;;;;;;;26.42;45.01;99735.19;5093588;28;20047;-64
2023/06/25 09:01:14;;;;;;;1.33;0.73;;;;;;;26.51;44.47;99724.13;5093605;28;20051;-64
2023/06/25 09:03:44;;;;;;;1.02;0.80;;;;;;;26.63;43.64;99737.22;5093505;28;20516;-64
2023/06/25 09:06:14;;;;;;;1.08;0.90;;;;;;;26.75;43.47;99732.16;5093295;28;20036;-64
2023/06/25 09:08:43;;;;;;;1.02;0.93;;;;;;;26.93;43.63;99720.47;5093442;28;20149;-64
2023/06/25 09:11:13;;;;;;;;;;;;;;;27.07;43.37;99733.47;5093981;28;20131;-64
2023/06/25 09:13:42;;;;;;;0.75;0.75;;;;;;;27.18;43.34;99726.59;5093908;28;19927;-64
2023/06/25 09:16:12;;;;;;;0.85;0.85;;;;;;;27.09;43.05;99729.00;5093356;28;20048;-64
2023/06/25 09:18:41;;;;;;;0.90;0.90;;;;;;;27.17;43.11;99726.66;5093328;28;20131;-64
2023/06/25 09:21:10;;;;;;;0.80;0.80;;;;;;;27.29;43.44;99728.47;5093907;28;20040;-64
2023/06/25 09:23:39;;;;;;;0.65;0.65;;;;;;;27.28;43.40;99727.63;5093491;28;20050;-64
2023/06/25 09:26:10;;;;;;;1.02;0.63;;;;;;;27.44;43.29;99737.94;5093231;28;20048;-64
2023/06/25 09:28:51;;;;;;;0.75;0.70;;;;;;;27.47;42.96;99737.72;5093488;28;20067;-64
2023/06/25 09:31:20;;;;;;;0.97;0.87;;;;;;;27.47;42.66;99736.88;5093831;28;20394;-64
2023/06/25 09:33:53;;;;;;;3.40;1.30;;;;;;;27.49;42.47;99730.59;5093187;28;20055;-64
2023/06/25 09:36:22;;;;;;;0.65;0.63;;;;;;;27.43;41.92;99730.16;5093499;28;20067;-65
2023/06/25 09:38:54;;;;;;;0.65;0.55;;;;;;;27.52;42.40;99727.72;5093178;28;20478;-64
2023/06/25 09:41:25;;;;;;;0.80;0.80;;;;;;;27.67;42.29;99718.81;5093012;28;20058;-64
2023/06/25 09:43:57;;;;;;;2.38;1.60;;;;;;;27.67;42.59;99713.56;5093487;28;20051;-64
2023/06/25 09:46:27;;;;;;;1.15;1.02;;;;;;;27.64;42.15;99718.19;5093258;28;20068;-64
2023/06/25 09:48:58;;;;;;;1.08;0.90;;;;;;;27.69;42.01;99716.91;5093054;28;20050;-64
2023/06/25 09:51:34;;;;;;;1.00;0.88;;;;;;;27.76;42.05;99710.28;5093638;28;20063;-64
2023/06/25 09:54:06;;;;;;;0.80;0.80;;;;;;;27.77;42.22;99714.59;5093173;28;20055;-64
2023/06/25 09:56:37;;;;;;;1.58;1.00;;;;;;;27.76;42.16;99707.66;5095743;28;20563;-64
2023/06/25 09:59:09;;;;;;;1.15;0.90;;;;;;;27.68;42.39;99703.91;5096668;28;20119;-64
2023/06/25 10:01:37;;;;;;;0.82;0.82;;;;;;;27.67;42.21;99700.44;5096880;28;20040;-64
2023/06/25 10:04:08;;;;;;;0.60;0.60;;;;;;;27.57;43.00;99691.53;5096854;28;20093;-64
2023/06/25 10:06:37;;;;;;;0.80;0.80;;;;;;;27.74;43.17;99682.47;5096627;28;20039;-65
2023/06/25 10:09:07;;;;;;;0.70;0.60;;;;;;;27.67;42.78;99703.06;5096444;28;20044;-64
2023/06/25 10:11:35;;;;;;;;;;;;;;;27.75;42.52;99711.25;5097037;28;20394;-65
2023/06/25 10:14:05;;;;;;;0.65;0.65;;;;;;;27.96;43.24;99687.03;5096972;28;20266;-65
2023/06/25 10:16:36;;;;;;;1.30;0.90;;;;;;;28.16;42.46;99696.97;5096915;28;20075;-64
2023/06/25 10:19:08;;;;;;;1.23;1.00;;;;;;;28.31;42.04;99693.22;5096602;28;20375;-64
2023/06/25 10:21:36;;;;;;;1.70;0.70;;;;;;;28.30;41.15;99691.53;5096171;28;20052;-65
2023/06/25 10:24:06;;;;;;;0.93;0.85;;;;;;;28.22;40.71;99699.97;5096436;28;20085;-64
2023/06/25 10:26:37;;;;;;;1.27;0.57;;;;;;;28.11;40.53;99678.06;5096083;28;20052;-65
2023/06/25 10:29:07;;;;;;;1.67;1.02;;;;;;;28.12;40.53;99695.53;5096316;28;20040;-64
2023/06/25 10:31:44;;;;;;;1.52;1.23;;;;;;;28.18;40.63;99693.28;5095067;28;20052;-64
2023/06/25 10:34:14;;;;;;;2.00;1.55;;;;;;;28.18;40.35;99676.69;5078193;28;20486;-64
2023/06/25 10:36:51;;;;;;;1.15;0.68;;;;;;;28.23;40.21;99692.94;5096165;28;20040;-65
2023/06/25 10:39:19;;;;;;;1.13;1.05;;;;;;;28.29;40.36;99674.13;5096198;28;20055;-64
2023/06/25 10:41:49;;;;;;;0.85;0.80;;;;;;;28.51;41.15;99672.41;5095616;28;20056;-65
2023/06/25 10:44:18;;;;;;;0.65;0.65;;;;;;;28.80;42.24;99672.88;5095744;28;20040;-65
2023/06/25 10:46:48;;;;;;;0.47;0.47;;;;;;;28.79;41.16;99679.09;5095802;28;20131;-65
2023/06/25 10:49:20;;;;;;;1.17;1.05;;;;;;;28.64;40.47;99671.53;5096013;28;20508;-64
2023/06/25 10:51:49;;;;;;;2.63;0.77;;;;;;;28.23;39.79;99669.31;5095669;28;20067;-66
2023/06/25 10:54:21;;;;;;;1.05;0.93;;;;;;;28.08;40.04;99667.78;5095835;28;20157;-64
2023/06/25 10:56:52;;;;;;;1.38;1.27;;;;;;;28.17;39.99;99659.28;5095532;28;20040;-64
2023/06/25 10:59:24;;;;;;;3.85;1.33;;;;;;;28.40;40.35;99661.03;5095564;28;20040;-65
2023/06/25 11:01:55;;;;;;;1.15;1.05;;;;;;;28.62;40.24;99655.88;5095473;28;20052;-64
2023/06/25 11:04:23;;;;;;;5.30;0.70;;;;;;;28.84;40.08;99657.72;5095604;28;20405;-64
2023/06/25 11:06:53;;;;;;;0.63;0.55;;;;;;;28.74;39.50;99654.97;5095106;28;20040;-65
2023/06/25 11:09:23;;;;;;;0.80;0.80;;;;;;;28.82;39.46;99657.81;5095906;28;20386;-64
2023/06/25 11:11:53;;;;;;;0.77;0.70;;;;;;;28.91;39.44;99657.16;5095233;28;20048;-65
2023/06/25 11:14:22;;;;;;;0.50;0.50;;;;;;;28.98;39.41;99653.09;5095195;28;20067;-65
2023/06/25 11:16:50;;;;;;;0.73;0.73;;;;;;;29.04;39.15;99636.84;5095026;28;20054;-65
2023/06/25 11:19:21;;;;;;;;;;;;;;;28.78;39.53;99640.63;5094587;28;20440;-65
2023/06/25 11:21:51;;;;;;;0.73;0.73;;;;;;;28.77;39.13;99638.94;5095087;28;19966;-65
2023/06/25 11:24:20;;;;;;;0.68;0.60;;;;;;;28.87;38.98;99645.16;5095821;28;20482;-65
2023/06/25 11:26:57;;;;;;;0.98;0.90;;;;;;;29.05;38.66;99638.50;5096139;28;20074;-64
2023/06/25 11:29:36;;;;;;;1.10;1.00;;;;;;;29.00;38.20;99629.31;5094771;28;20340;-66
2023/06/25 11:32:08;;;;;;;2.65;1.63;;;;;;;29.01;37.96;99621.28;5102978;28;20114;-65
2023/06/25 11:34:45;;;;;;;1.73;1.05;;;;;;;29.05;38.30;99633.25;5107866;28;20051;-64
2023/06/25 11:37:15;;;;;;;1.00;1.00;;;;;;;29.17;38.26;99627.06;5115165;28;20048;-65
2023/06/25 11:39:45;;;;;;;0.95;0.80;;;;;;;29.08;37.86;99627.75;5113639;28;20043;-65
2023/06/25 11:42:15;;;;;;;1.10;0.88;;;;;;;28.93;37.78;99615.81;5114959;28;20044;-64
2023/06/25 11:44:46;;;;;;;2.08;1.55;;;;;;;29.11;38.28;99616.16;5112296;28;20050;-64
2023/06/25 11:47:15;;;;;;;1.55;0.75;;;;;;;29.23;37.82;99619.69;5115299;28;20039;-65